FYI1648 LFBO-LEMD
Flight info
| Callsign | FYI1648 |
|---|---|
| Flight time | 1h 3m |
| Altitude | 35000 |
| Route | GAUDE DCT TIVLI DCT ELSAP DCT ZAR DCT KONKE DCT TERSA |
| Aircraft | A320/M-SDE3FGHIRWY/LB1 |
Departure
| Time | 2026-05-05 19:22 |
|---|---|
| Airport | Toulouse-Blagnac Airport (LFBO) |
Arrival
| Time | 2026-05-05 20:25 |
|---|---|
| Airport | Adolfo Suárez Madrid–Barajas Airport (LEMD) |
| Time | Latitude | Longitude | Altitude | Speed | Heading |
|---|---|---|---|---|---|
| 2026-05-05 18:52 | 43.62912 | 1.37394 | 483 ft | 0 kts | 49° |
| 2026-05-05 19:12 | 43.62911 | 1.37393 | 494 ft | 2 kts | 49° |
| 2026-05-05 19:12 | 43.62894 | 1.37366 | 488 ft | 4 kts | 49° |
| 2026-05-05 19:13 | 43.62876 | 1.37339 | 484 ft | 4 kts | 49° |
| 2026-05-05 19:13 | 43.62862 | 1.37318 | 484 ft | 4 kts | 24° |
| 2026-05-05 19:13 | 43.62839 | 1.37317 | 489 ft | 4 kts | 328° |
| 2026-05-05 19:13 | 43.62820 | 1.37336 | 483 ft | 0 kts | 323° |
| 2026-05-05 19:16 | 43.62832 | 1.37323 | 483 ft | 4 kts | 323° |
| 2026-05-05 19:17 | 43.62859 | 1.37295 | 486 ft | 8 kts | 323° |
| 2026-05-05 19:17 | 43.62901 | 1.37240 | 488 ft | 13 kts | 299° |
| 2026-05-05 19:17 | 43.62858 | 1.37111 | 492 ft | 17 kts | 234° |
| 2026-05-05 19:17 | 43.62767 | 1.37086 | 492 ft | 16 kts | 152° |
| 2026-05-05 19:18 | 43.62674 | 1.37178 | 490 ft | 17 kts | 143° |
| 2026-05-05 19:18 | 43.62575 | 1.37282 | 488 ft | 20 kts | 143° |
| 2026-05-05 19:18 | 43.62462 | 1.37399 | 490 ft | 21 kts | 143° |
| 2026-05-05 19:18 | 43.62343 | 1.37522 | 489 ft | 22 kts | 143° |
| 2026-05-05 19:19 | 43.62219 | 1.37652 | 489 ft | 23 kts | 143° |
| 2026-05-05 19:19 | 43.62088 | 1.37786 | 488 ft | 24 kts | 143° |
| 2026-05-05 19:19 | 43.61955 | 1.37925 | 490 ft | 24 kts | 143° |
| 2026-05-05 19:19 | 43.61817 | 1.38068 | 487 ft | 25 kts | 143° |
| 2026-05-05 19:20 | 43.61750 | 1.38139 | 487 ft | 6 kts | 142° |
| 2026-05-05 19:20 | 43.61720 | 1.38168 | 492 ft | 5 kts | 151° |
| 2026-05-05 19:20 | 43.61667 | 1.38170 | 494 ft | 9 kts | 201° |
| 2026-05-05 19:20 | 43.61622 | 1.38107 | 492 ft | 9 kts | 233° |
| 2026-05-05 19:21 | 43.61587 | 1.38040 | 491 ft | 8 kts | 239° |
| 2026-05-05 19:21 | 43.61603 | 1.37983 | 487 ft | 6 kts | 317° |
| 2026-05-05 19:21 | 43.61621 | 1.37964 | 488 ft | 0 kts | 322° |
| 2026-05-05 19:21 | 43.61632 | 1.37952 | 485 ft | 17 kts | 322° |
| 2026-05-05 19:22 | 43.61949 | 1.37621 | 489 ft | 92 kts | 322° |
| 2026-05-05 19:22 | 43.62626 | 1.36917 | 488 ft | 148 kts | 323° |
| 2026-05-05 19:22 | 43.63536 | 1.35955 | 801 ft | 167 kts | 320° |
| 2026-05-05 19:22 | 43.64444 | 1.35004 | 1629 ft | 161 kts | 320° |
| 2026-05-05 19:23 | 43.65323 | 1.34073 | 2364 ft | 161 kts | 319° |
| 2026-05-05 19:23 | 43.66270 | 1.33029 | 2617 ft | 186 kts | 318° |
| 2026-05-05 19:23 | 43.67316 | 1.31847 | 2966 ft | 203 kts | 319° |
| 2026-05-05 19:23 | 43.68462 | 1.30554 | 3287 ft | 225 kts | 315° |
| 2026-05-05 19:24 | 43.69511 | 1.28827 | 3759 ft | 244 kts | 306° |
| 2026-05-05 19:24 | 43.70429 | 1.26818 | 4553 ft | 250 kts | 292° |
| 2026-05-05 19:24 | 43.70790 | 1.24470 | 5445 ft | 254 kts | 273° |
| 2026-05-05 19:24 | 43.70596 | 1.22030 | 6297 ft | 260 kts | 254° |
| 2026-05-05 19:25 | 43.69748 | 1.19809 | 7097 ft | 267 kts | 232° |
| 2026-05-05 19:25 | 43.68298 | 1.18179 | 7904 ft | 274 kts | 209° |
| 2026-05-05 19:25 | 43.66451 | 1.17461 | 8784 ft | 280 kts | 185° |
| 2026-05-05 19:25 | 43.64507 | 1.17742 | 9701 ft | 283 kts | 172° |
| 2026-05-05 19:26 | 43.62556 | 1.18204 | 10417 ft | 290 kts | 176° |
| 2026-05-05 19:26 | 43.60480 | 1.18101 | 10651 ft | 310 kts | 187° |
| 2026-05-05 19:26 | 43.58270 | 1.17810 | 11070 ft | 325 kts | 187° |
| 2026-05-05 19:26 | 43.56043 | 1.17222 | 11717 ft | 328 kts | 202° |
| 2026-05-05 19:27 | 43.53952 | 1.15928 | 12446 ft | 331 kts | 208° |
| 2026-05-05 19:27 | 43.51902 | 1.14461 | 13185 ft | 334 kts | 211° |
| 2026-05-05 19:27 | 43.49930 | 1.12742 | 13867 ft | 337 kts | 215° |
| 2026-05-05 19:27 | 43.47972 | 1.10927 | 14497 ft | 341 kts | 216° |
| 2026-05-05 19:28 | 43.46017 | 1.09067 | 15149 ft | 343 kts | 216° |
| 2026-05-05 19:28 | 43.44065 | 1.07162 | 15806 ft | 345 kts | 217° |
| 2026-05-05 19:28 | 43.42111 | 1.05221 | 16458 ft | 348 kts | 217° |
| 2026-05-05 19:28 | 43.40153 | 1.03258 | 17123 ft | 350 kts | 217° |
| 2026-05-05 19:29 | 43.38187 | 1.01274 | 17790 ft | 351 kts | 217° |
| 2026-05-05 19:29 | 43.36210 | 0.99280 | 18425 ft | 353 kts | 217° |
| 2026-05-05 19:29 | 43.34221 | 0.97279 | 18988 ft | 355 kts | 217° |
| 2026-05-05 19:29 | 43.32217 | 0.95270 | 19545 ft | 357 kts | 217° |
| 2026-05-05 19:30 | 43.30201 | 0.93257 | 20097 ft | 359 kts | 217° |
| 2026-05-05 19:30 | 43.28168 | 0.91243 | 20645 ft | 361 kts | 216° |
| 2026-05-05 19:30 | 43.26120 | 0.89227 | 21184 ft | 363 kts | 216° |
| 2026-05-05 19:30 | 43.24087 | 0.87230 | 21707 ft | 365 kts | 216° |
| 2026-05-05 19:31 | 43.22015 | 0.85199 | 22223 ft | 367 kts | 216° |
| 2026-05-05 19:31 | 43.19932 | 0.83158 | 22749 ft | 369 kts | 216° |
| 2026-05-05 19:31 | 43.17812 | 0.81079 | 23283 ft | 371 kts | 216° |
| 2026-05-05 19:31 | 43.15714 | 0.79020 | 23738 ft | 373 kts | 216° |
| 2026-05-05 19:32 | 43.13598 | 0.76948 | 24147 ft | 375 kts | 216° |
| 2026-05-05 19:32 | 43.11495 | 0.74895 | 24491 ft | 379 kts | 216° |
| 2026-05-05 19:32 | 43.09305 | 0.72759 | 24808 ft | 383 kts | 216° |
| 2026-05-05 19:32 | 43.07160 | 0.70665 | 25181 ft | 385 kts | 216° |
| 2026-05-05 19:33 | 43.04970 | 0.68531 | 25567 ft | 387 kts | 216° |
| 2026-05-05 19:33 | 43.02844 | 0.66271 | 25945 ft | 388 kts | 224° |
| 2026-05-05 19:33 | 43.01056 | 0.63511 | 26343 ft | 388 kts | 235° |
| 2026-05-05 19:33 | 42.99692 | 0.60340 | 26793 ft | 388 kts | 245° |
| 2026-05-05 19:34 | 42.98786 | 0.56866 | 27187 ft | 391 kts | 254° |
| 2026-05-05 19:34 | 42.98145 | 0.53255 | 27548 ft | 393 kts | 255° |
| 2026-05-05 19:34 | 42.97503 | 0.49617 | 27937 ft | 395 kts | 255° |
| 2026-05-05 19:35 | 42.96212 | 0.42303 | 28700 ft | 398 kts | 255° |
| 2026-05-05 19:35 | 42.95555 | 0.38626 | 29059 ft | 400 kts | 255° |
| 2026-05-05 19:35 | 42.94892 | 0.34934 | 29413 ft | 402 kts | 255° |
| 2026-05-05 19:35 | 42.94225 | 0.31217 | 29721 ft | 405 kts | 255° |
| 2026-05-05 19:36 | 42.93551 | 0.27474 | 30037 ft | 407 kts | 255° |
| 2026-05-05 19:36 | 42.92874 | 0.23722 | 30292 ft | 408 kts | 255° |
| 2026-05-05 19:36 | 42.92193 | 0.19952 | 30542 ft | 410 kts | 255° |
| 2026-05-05 19:36 | 42.91509 | 0.16162 | 30793 ft | 412 kts | 255° |
| 2026-05-05 19:37 | 42.90823 | 0.12367 | 31032 ft | 414 kts | 255° |
| 2026-05-05 19:37 | 42.90132 | 0.08553 | 31329 ft | 414 kts | 255° |
| 2026-05-05 19:37 | 42.89439 | 0.04744 | 31683 ft | 413 kts | 255° |
| 2026-05-05 19:37 | 42.88743 | 0.00947 | 32036 ft | 413 kts | 255° |
| 2026-05-05 19:38 | 42.88049 | -0.02841 | 32383 ft | 412 kts | 255° |
| 2026-05-05 19:38 | 42.87353 | -0.06641 | 32692 ft | 413 kts | 255° |
| 2026-05-05 19:38 | 42.86657 | -0.10439 | 33037 ft | 412 kts | 255° |
| 2026-05-05 19:38 | 42.85966 | -0.14218 | 33383 ft | 411 kts | 255° |
| 2026-05-05 19:39 | 42.85272 | -0.17998 | 33723 ft | 410 kts | 255° |
| 2026-05-05 19:39 | 42.84577 | -0.21764 | 34040 ft | 410 kts | 255° |
| 2026-05-05 19:39 | 42.83877 | -0.25532 | 34316 ft | 410 kts | 255° |
| 2026-05-05 19:39 | 42.83175 | -0.29291 | 34565 ft | 409 kts | 255° |
| 2026-05-05 19:40 | 42.82472 | -0.33051 | 34810 ft | 410 kts | 255° |
| 2026-05-05 19:40 | 42.81603 | -0.36747 | 34957 ft | 410 kts | 246° |
| 2026-05-05 19:40 | 42.80297 | -0.40162 | 34996 ft | 406 kts | 238° |
| 2026-05-05 19:40 | 42.78559 | -0.43170 | 34994 ft | 405 kts | 226° |
| 2026-05-05 19:41 | 42.76359 | -0.45583 | 34997 ft | 408 kts | 214° |
| 2026-05-05 19:41 | 42.71095 | -0.48647 | 34990 ft | 414 kts | 204° |
| 2026-05-05 19:42 | 42.65717 | -0.51439 | 34985 ft | 414 kts | 205° |
| 2026-05-05 19:42 | 42.60349 | -0.54261 | 34960 ft | 414 kts | 205° |
| 2026-05-05 19:43 | 42.54991 | -0.57082 | 34970 ft | 413 kts | 205° |
| 2026-05-05 19:43 | 42.49671 | -0.59871 | 34973 ft | 413 kts | 205° |
| 2026-05-05 19:44 | 42.44314 | -0.62660 | 34966 ft | 412 kts | 205° |
| 2026-05-05 19:44 | 42.38962 | -0.65446 | 34948 ft | 412 kts | 205° |
| 2026-05-05 19:45 | 42.33608 | -0.68226 | 34960 ft | 412 kts | 205° |
| 2026-05-05 19:45 | 42.28261 | -0.71001 | 34966 ft | 411 kts | 205° |
| 2026-05-05 19:46 | 42.22923 | -0.73781 | 34962 ft | 411 kts | 205° |
| 2026-05-05 19:46 | 42.17582 | -0.76545 | 34951 ft | 411 kts | 206° |
| 2026-05-05 19:47 | 42.12237 | -0.79299 | 34954 ft | 412 kts | 206° |
| 2026-05-05 19:47 | 42.06885 | -0.82063 | 34956 ft | 412 kts | 206° |
| 2026-05-05 19:48 | 42.01535 | -0.84821 | 34954 ft | 412 kts | 206° |
| 2026-05-05 19:48 | 41.96180 | -0.87568 | 34936 ft | 412 kts | 206° |
| 2026-05-05 19:49 | 41.90817 | -0.90310 | 34951 ft | 412 kts | 206° |
| 2026-05-05 19:49 | 41.85458 | -0.93052 | 34963 ft | 412 kts | 206° |
| 2026-05-05 19:50 | 41.80102 | -0.95793 | 34972 ft | 412 kts | 206° |
| 2026-05-05 19:50 | 41.74743 | -0.98528 | 34948 ft | 412 kts | 206° |
| 2026-05-05 19:51 | 41.69393 | -1.01247 | 34973 ft | 411 kts | 206° |
| 2026-05-05 19:51 | 41.64445 | -1.04789 | 34979 ft | 399 kts | 223° |
| 2026-05-05 19:52 | 41.60325 | -1.09699 | 34982 ft | 397 kts | 226° |
| 2026-05-05 19:52 | 41.56233 | -1.14647 | 35002 ft | 397 kts | 226° |
| 2026-05-05 19:53 | 41.52131 | -1.19573 | 34997 ft | 396 kts | 227° |
| 2026-05-05 19:53 | 41.48042 | -1.24472 | 35012 ft | 395 kts | 227° |
| 2026-05-05 19:54 | 41.43965 | -1.29371 | 35011 ft | 394 kts | 227° |
| 2026-05-05 19:54 | 41.39905 | -1.34250 | 35013 ft | 393 kts | 227° |
| 2026-05-05 19:55 | 41.35865 | -1.39082 | 35013 ft | 393 kts | 227° |
| 2026-05-05 19:55 | 41.33837 | -1.41502 | 34758 ft | 390 kts | 227° |
| 2026-05-05 19:55 | 41.31845 | -1.43878 | 34400 ft | 383 kts | 227° |
| 2026-05-05 19:55 | 41.29865 | -1.46235 | 33944 ft | 379 kts | 228° |
| 2026-05-05 19:56 | 41.27910 | -1.48561 | 33432 ft | 375 kts | 228° |
| 2026-05-05 19:56 | 41.25982 | -1.50851 | 32998 ft | 369 kts | 228° |
| 2026-05-05 19:56 | 41.24694 | -1.52379 | 32705 ft | 366 kts | 228° |
| 2026-05-05 19:56 | 41.22806 | -1.54620 | 32265 ft | 361 kts | 229° |
| 2026-05-05 19:57 | 41.20949 | -1.56825 | 31841 ft | 356 kts | 229° |
| 2026-05-05 19:57 | 41.19110 | -1.59005 | 31419 ft | 352 kts | 229° |
| 2026-05-05 19:57 | 41.17299 | -1.61155 | 31007 ft | 347 kts | 229° |
| 2026-05-05 19:57 | 41.15513 | -1.63277 | 30612 ft | 342 kts | 230° |
| 2026-05-05 19:58 | 41.13747 | -1.65365 | 30218 ft | 337 kts | 230° |
| 2026-05-05 19:58 | 41.12009 | -1.67420 | 29794 ft | 332 kts | 230° |
| 2026-05-05 19:58 | 41.10302 | -1.69438 | 29403 ft | 325 kts | 230° |
| 2026-05-05 19:58 | 41.08631 | -1.71412 | 29050 ft | 319 kts | 230° |
| 2026-05-05 19:59 | 41.06987 | -1.73352 | 28704 ft | 313 kts | 230° |
| 2026-05-05 19:59 | 41.05376 | -1.75257 | 28364 ft | 308 kts | 230° |
| 2026-05-05 19:59 | 41.03789 | -1.77132 | 28028 ft | 303 kts | 230° |
| 2026-05-05 19:59 | 41.02219 | -1.78983 | 27663 ft | 301 kts | 230° |
| 2026-05-05 20:00 | 41.00677 | -1.80802 | 27293 ft | 300 kts | 230° |
| 2026-05-05 20:00 | 40.99119 | -1.82638 | 26911 ft | 300 kts | 230° |
| 2026-05-05 20:00 | 40.97566 | -1.84468 | 26534 ft | 299 kts | 230° |
| 2026-05-05 20:00 | 40.96014 | -1.86297 | 26154 ft | 298 kts | 229° |
| 2026-05-05 20:01 | 40.94466 | -1.88115 | 25759 ft | 298 kts | 229° |
| 2026-05-05 20:01 | 40.92919 | -1.89930 | 25363 ft | 297 kts | 229° |
| 2026-05-05 20:01 | 40.91373 | -1.91741 | 24970 ft | 297 kts | 230° |
| 2026-05-05 20:01 | 40.89832 | -1.93547 | 24559 ft | 296 kts | 230° |
| 2026-05-05 20:02 | 40.88294 | -1.95350 | 24126 ft | 294 kts | 231° |
| 2026-05-05 20:02 | 40.86767 | -1.97134 | 23732 ft | 293 kts | 231° |
| 2026-05-05 20:02 | 40.85243 | -1.98918 | 23281 ft | 292 kts | 230° |
| 2026-05-05 20:02 | 40.83731 | -2.00687 | 22863 ft | 289 kts | 230° |
| 2026-05-05 20:03 | 40.82230 | -2.02440 | 22469 ft | 287 kts | 230° |
| 2026-05-05 20:03 | 40.80732 | -2.04185 | 22075 ft | 287 kts | 229° |
| 2026-05-05 20:03 | 40.79237 | -2.05924 | 21681 ft | 286 kts | 229° |
| 2026-05-05 20:03 | 40.77742 | -2.07660 | 21295 ft | 286 kts | 228° |
| 2026-05-05 20:04 | 40.76251 | -2.09400 | 20907 ft | 286 kts | 228° |
| 2026-05-05 20:04 | 40.74834 | -2.11213 | 20523 ft | 281 kts | 236° |
| 2026-05-05 20:04 | 40.73804 | -2.13367 | 20152 ft | 276 kts | 249° |
| 2026-05-05 20:04 | 40.73217 | -2.15768 | 19862 ft | 281 kts | 261° |
| 2026-05-05 20:05 | 40.73092 | -2.18415 | 19655 ft | 296 kts | 275° |
| 2026-05-05 20:05 | 40.73393 | -2.21123 | 19423 ft | 301 kts | 278° |
| 2026-05-05 20:05 | 40.73727 | -2.23855 | 19194 ft | 303 kts | 278° |
| 2026-05-05 20:05 | 40.74057 | -2.26598 | 18957 ft | 304 kts | 278° |
| 2026-05-05 20:06 | 40.74386 | -2.29354 | 18711 ft | 305 kts | 279° |
| 2026-05-05 20:06 | 40.74713 | -2.32119 | 18483 ft | 306 kts | 279° |
| 2026-05-05 20:06 | 40.75038 | -2.34891 | 18238 ft | 306 kts | 279° |
| 2026-05-05 20:06 | 40.75369 | -2.37665 | 17979 ft | 306 kts | 279° |
| 2026-05-05 20:07 | 40.75700 | -2.40433 | 17746 ft | 305 kts | 279° |
| 2026-05-05 20:07 | 40.76031 | -2.43196 | 17512 ft | 305 kts | 279° |
| 2026-05-05 20:07 | 40.76360 | -2.45951 | 17272 ft | 303 kts | 279° |
| 2026-05-05 20:07 | 40.76686 | -2.48694 | 17039 ft | 303 kts | 279° |
| 2026-05-05 20:08 | 40.77008 | -2.51435 | 16805 ft | 302 kts | 279° |
| 2026-05-05 20:08 | 40.77328 | -2.54163 | 16574 ft | 300 kts | 278° |
| 2026-05-05 20:08 | 40.77647 | -2.56884 | 16343 ft | 300 kts | 278° |
| 2026-05-05 20:08 | 40.77966 | -2.59597 | 16106 ft | 299 kts | 278° |
| 2026-05-05 20:09 | 40.77995 | -2.62327 | 15879 ft | 298 kts | 263° |
| 2026-05-05 20:09 | 40.77445 | -2.64957 | 15649 ft | 299 kts | 248° |
| 2026-05-05 20:09 | 40.76362 | -2.67301 | 15412 ft | 302 kts | 232° |
| 2026-05-05 20:09 | 40.74905 | -2.69302 | 15183 ft | 302 kts | 227° |
| 2026-05-05 20:10 | 40.73423 | -2.71271 | 14953 ft | 302 kts | 228° |
| 2026-05-05 20:10 | 40.71951 | -2.73236 | 14713 ft | 301 kts | 228° |
| 2026-05-05 20:10 | 40.70485 | -2.75193 | 14485 ft | 300 kts | 227° |
| 2026-05-05 20:10 | 40.69025 | -2.77141 | 14278 ft | 296 kts | 228° |
| 2026-05-05 20:11 | 40.67600 | -2.79040 | 14153 ft | 287 kts | 228° |
| 2026-05-05 20:11 | 40.66214 | -2.80882 | 14026 ft | 279 kts | 227° |
| 2026-05-05 20:11 | 40.64695 | -2.82429 | 13911 ft | 274 kts | 214° |
| 2026-05-05 20:11 | 40.63086 | -2.83722 | 13774 ft | 268 kts | 214° |
| 2026-05-05 20:12 | 40.61505 | -2.84993 | 13482 ft | 266 kts | 214° |
| 2026-05-05 20:12 | 40.59928 | -2.86264 | 13201 ft | 264 kts | 214° |
| 2026-05-05 20:12 | 40.58364 | -2.87519 | 12913 ft | 263 kts | 214° |
| 2026-05-05 20:12 | 40.56815 | -2.88762 | 12704 ft | 259 kts | 214° |
| 2026-05-05 20:13 | 40.55282 | -2.89995 | 12476 ft | 257 kts | 214° |
| 2026-05-05 20:13 | 40.53761 | -2.91221 | 12250 ft | 256 kts | 214° |
| 2026-05-05 20:13 | 40.52245 | -2.92444 | 12021 ft | 255 kts | 214° |
| 2026-05-05 20:13 | 40.50738 | -2.93661 | 11800 ft | 254 kts | 214° |
| 2026-05-05 20:14 | 40.49236 | -2.94871 | 11572 ft | 253 kts | 214° |
| 2026-05-05 20:14 | 40.47740 | -2.96076 | 11353 ft | 252 kts | 214° |
| 2026-05-05 20:14 | 40.46250 | -2.97275 | 11130 ft | 251 kts | 214° |
| 2026-05-05 20:14 | 40.44763 | -2.98469 | 10915 ft | 250 kts | 214° |
| 2026-05-05 20:15 | 40.43278 | -2.99657 | 10677 ft | 249 kts | 214° |
| 2026-05-05 20:15 | 40.41798 | -3.00842 | 10468 ft | 249 kts | 214° |
| 2026-05-05 20:15 | 40.40318 | -3.02026 | 10247 ft | 249 kts | 214° |
| 2026-05-05 20:15 | 40.38844 | -3.03206 | 10019 ft | 248 kts | 214° |
| 2026-05-05 20:16 | 40.37375 | -3.04383 | 9797 ft | 247 kts | 214° |
| 2026-05-05 20:16 | 40.35912 | -3.05554 | 9565 ft | 247 kts | 214° |
| 2026-05-05 20:16 | 40.34442 | -3.06726 | 9341 ft | 247 kts | 214° |
| 2026-05-05 20:16 | 40.32971 | -3.07896 | 9122 ft | 247 kts | 214° |
| 2026-05-05 20:17 | 40.31506 | -3.09063 | 8898 ft | 247 kts | 214° |
| 2026-05-05 20:17 | 40.30042 | -3.10228 | 8676 ft | 246 kts | 214° |
| 2026-05-05 20:17 | 40.28580 | -3.11391 | 8457 ft | 246 kts | 214° |
| 2026-05-05 20:17 | 40.27251 | -3.12759 | 8232 ft | 241 kts | 233° |
| 2026-05-05 20:18 | 40.26444 | -3.14642 | 8025 ft | 237 kts | 255° |
| 2026-05-05 20:18 | 40.26249 | -3.16754 | 7806 ft | 234 kts | 276° |
| 2026-05-05 20:18 | 40.26507 | -3.18849 | 7588 ft | 234 kts | 281° |
| 2026-05-05 20:18 | 40.26788 | -3.20949 | 7376 ft | 234 kts | 281° |
| 2026-05-05 20:19 | 40.27063 | -3.23021 | 7164 ft | 234 kts | 281° |
| 2026-05-05 20:19 | 40.27345 | -3.25148 | 6953 ft | 234 kts | 281° |
| 2026-05-05 20:19 | 40.27618 | -3.27220 | 6750 ft | 233 kts | 281° |
| 2026-05-05 20:19 | 40.27891 | -3.29304 | 6539 ft | 232 kts | 281° |
| 2026-05-05 20:20 | 40.28184 | -3.31385 | 6333 ft | 232 kts | 287° |
| 2026-05-05 20:20 | 40.28829 | -3.33299 | 6125 ft | 227 kts | 305° |
| 2026-05-05 20:20 | 40.29804 | -3.34877 | 5941 ft | 220 kts | 311° |
| 2026-05-05 20:20 | 40.30791 | -3.36390 | 5730 ft | 217 kts | 311° |
| 2026-05-05 20:21 | 40.31834 | -3.37815 | 5543 ft | 215 kts | 319° |
| 2026-05-05 20:21 | 40.32955 | -3.39041 | 5431 ft | 206 kts | 322° |
| 2026-05-05 20:21 | 40.34078 | -3.40186 | 5206 ft | 204 kts | 322° |
| 2026-05-05 20:21 | 40.35195 | -3.41313 | 4951 ft | 202 kts | 323° |
| 2026-05-05 20:22 | 40.36305 | -3.42433 | 4678 ft | 202 kts | 323° |
| 2026-05-05 20:22 | 40.37418 | -3.43557 | 4410 ft | 201 kts | 323° |
| 2026-05-05 20:22 | 40.38522 | -3.44673 | 4138 ft | 198 kts | 323° |
| 2026-05-05 20:22 | 40.39585 | -3.45748 | 3890 ft | 185 kts | 323° |
| 2026-05-05 20:23 | 40.40557 | -3.46731 | 3661 ft | 169 kts | 323° |
| 2026-05-05 20:23 | 40.41447 | -3.47631 | 3449 ft | 153 kts | 323° |
| 2026-05-05 20:23 | 40.42258 | -3.48452 | 3233 ft | 143 kts | 323° |
| 2026-05-05 20:23 | 40.43037 | -3.49241 | 2989 ft | 140 kts | 321° |
| 2026-05-05 20:24 | 40.43801 | -3.50015 | 2804 ft | 141 kts | 321° |
| 2026-05-05 20:24 | 40.44576 | -3.50798 | 2649 ft | 140 kts | 322° |
| 2026-05-05 20:24 | 40.45343 | -3.51574 | 2439 ft | 139 kts | 321° |
| 2026-05-05 20:24 | 40.46105 | -3.52351 | 2246 ft | 138 kts | 321° |
| 2026-05-05 20:25 | 40.46867 | -3.53127 | 2073 ft | 138 kts | 321° |
| 2026-05-05 20:25 | 40.47613 | -3.53900 | 1940 ft | 136 kts | 320° |
| 2026-05-05 20:25 | 40.48274 | -3.54560 | 1934 ft | 96 kts | 322° |
| 2026-05-05 20:25 | 40.48671 | -3.54959 | 1948 ft | 47 kts | 322° |
| 2026-05-05 20:26 | 40.48893 | -3.55188 | 1952 ft | 36 kts | 321° |
| 2026-05-05 20:26 | 40.49077 | -3.55374 | 1954 ft | 31 kts | 322° |
| 2026-05-05 20:26 | 40.49203 | -3.55571 | 1962 ft | 26 kts | 297° |
| 2026-05-05 20:26 | 40.49266 | -3.55764 | 1961 ft | 18 kts | 291° |
| 2026-05-05 20:27 | 40.49298 | -3.55875 | 1960 ft | 12 kts | 284° |
| 2026-05-05 20:27 | 40.49300 | -3.55995 | 1959 ft | 14 kts | 270° |
| 2026-05-05 20:27 | 40.49298 | -3.56135 | 1959 ft | 16 kts | 269° |
| 2026-05-05 20:27 | 40.49347 | -3.56246 | 1962 ft | 16 kts | 353° |
| 2026-05-05 20:28 | 40.49466 | -3.56248 | 1961 ft | 18 kts | 360° |
| 2026-05-05 20:28 | 40.49551 | -3.56270 | 1965 ft | 9 kts | 300° |
| 2026-05-05 20:28 | 40.49552 | -3.56350 | 1964 ft | 8 kts | 270° |
| 2026-05-05 20:28 | 40.49552 | -3.56420 | 1966 ft | 7 kts | 270° |
| 2026-05-05 20:29 | 40.49552 | -3.56477 | 1968 ft | 6 kts | 270° |
| 2026-05-05 20:29 | 40.49536 | -3.56535 | 1973 ft | 11 kts | 219° |
| 2026-05-05 20:29 | 40.49465 | -3.56544 | 1969 ft | 10 kts | 180° |
| 2026-05-05 20:29 | 40.49384 | -3.56544 | 1969 ft | 13 kts | 179° |
| 2026-05-05 20:30 | 40.49301 | -3.56543 | 1969 ft | 11 kts | 180° |
| 2026-05-05 20:30 | 40.49279 | -3.56604 | 1973 ft | 7 kts | 260° |
| 2026-05-05 20:30 | 40.49278 | -3.56637 | 1971 ft | 0 kts | 269° |
| 2026-05-05 20:30 | 40.49278 | -3.56644 | 1971 ft | 0 kts | 270° |
| 2026-05-05 20:33 | 40.49278 | -3.56643 | 1971 ft | 0 kts | 270° |